OKBO2: North Canadian River at Britton Rd at OKC, OK

                                SHEF ID:       OKBO2     North Canadian River at Britton
STATION TYPE:

STAGE RIV-FLOW WTR-TEMP DIS-OXY CONDUCT BAT-LOAD
ft cfs F mg/l umho/cm volt
Ccp-Rev Ccp-Rev Ccp-Rev Ccp-Rev Ccp-Rev Ccp-Rev
(America/Chicago)
04/25 00:00 5.00 89 70.66 7.04 1058 12.01
04/25 01:00 5.01 91 69.69 6.88 1073 11.98
04/25 02:00 5.03 94 68.99 6.66 1095 11.96
04/25 03:00 5.05 97 68.43 6.53 1118 11.95
04/25 04:00 5.09 104 68.11 6.40 1134 11.94
04/25 05:00 5.12 109 67.82 6.32 1130 11.94
04/25 06:00 5.14 113 67.53 6.30 1104 11.91
04/25 07:00 5.16 117 67.23 6.26 1067 11.90
04/25 08:00 5.17 119 66.94 6.43 1017 12.02
04/25 09:00 5.14 113 66.94 6.74 984 12.53
04/25 10:00 5.16 117 67.24 7.21 950 13.03
04/25 11:00 5.16 117 67.95 7.86 920 13.13
04/25 12:00 5.18 120 68.52 8.39 899 13.16
04/25 13:00 5.19 122 69.22 8.85 884 12.97
04/25 14:00 5.18 120 69.53 9.07 872 12.93
04/25 15:00 5.17 119 69.75 9.14 861 12.93
04/25 16:00 5.17 119 70.75 9.51 850 12.99
04/25 17:00 5.17 119 71.56 9.76 837 12.93
04/25 18:00 5.14 113 72.27 9.88 824 12.86
04/25 19:00 5.16 117 72.36 9.72 814 12.86
04/25 20:00 5.14 113 72.16 9.27 806 12.70
04/25 21:00 5.13 111 71.69 8.49 797 12.41
04/25 22:00 5.12 109 71.53 7.93 791 12.21
04/25 23:00 5.11 108 71.20 7.54 787 12.08
Data processed at Sun 26Apr2026 04:25 GMT

NOTICE: If you are parsing this page

Please convert to using our Data API. Starting early 2026 we will be migrating to: https://water.usace.army.mil with modern pages rendered in JavaScript. When this migration completes you will no longer be able to scrape this page! CWMSDataAPI (CDA)

Timeseries IDs (TSIDs)

TSIDs used from left to right in the data table
OKC3.Stage.Inst.1Hour.0.Ccp-Rev
OKC3.Flow.Inst.1Hour.0.Ccp-Rev
OKC3.Temp-Water.Inst.1Hour.0.Ccp-Rev
OKC3.Conc-DO.Inst.1Hour.0.Ccp-Rev
OKC3.Cond-Water.Inst.1Hour.0.Ccp-Rev
OKC3.Volt-Battery Load.Inst.1Hour.0.Ccp-Rev

                            

All information presented herein is the property of the government of the United States of America and may be revised or deleted at any time without prior notice. Dissemination of this information without the expressed written consent of the Public Affairs Office, Tulsa District U.S. Army Corps of Engineers is strictly prohibited. These data are gathered electronically and, as presented, have NOT undergone any form of quality control. These data are NOT guaranteed to be valid or correct.